createdAt,value
2022-08-17T00:00:05.779Z,20.86
2022-08-17T00:02:34.337Z,20.84
2022-08-17T00:05:03.937Z,20.81
2022-08-17T00:07:30.877Z,20.80
2022-08-17T00:09:57.905Z,20.77
2022-08-17T00:12:43.098Z,20.77
2022-08-17T00:15:13.703Z,20.72
2022-08-17T00:17:42.869Z,20.73
2022-08-17T00:20:12.136Z,20.71
2022-08-17T00:22:39.097Z,20.68
2022-08-17T00:25:13.094Z,20.67
2022-08-17T00:27:40.135Z,20.64
2022-08-17T00:30:09.789Z,20.60
2022-08-17T00:33:14.072Z,20.54
2022-08-17T00:35:27.905Z,20.47
2022-08-17T00:37:55.171Z,20.43
2022-08-17T00:40:22.215Z,20.34
2022-08-17T00:42:53.330Z,20.26
2022-08-17T00:45:20.641Z,20.20
2022-08-17T00:47:47.848Z,20.19
2022-08-17T00:50:17.129Z,20.12
2022-08-17T00:52:51.792Z,20.09
2022-08-17T00:55:20.109Z,20.03
2022-08-17T00:57:55.150Z,20.01
2022-08-17T01:00:29.364Z,19.96
2022-08-17T01:03:02.399Z,19.95
2022-08-17T01:05:32.597Z,19.91
2022-08-17T01:08:02.077Z,19.89
2022-08-17T01:10:58.765Z,19.85
2022-08-17T01:13:39.763Z,19.79
2022-08-17T01:16:28.909Z,19.74
2022-08-17T01:19:00.615Z,19.64
2022-08-17T01:21:41.663Z,19.64
2022-08-17T01:24:08.800Z,19.61
2022-08-17T01:26:38.086Z,19.57
2022-08-17T01:29:06.290Z,19.53
2022-08-17T01:31:38.749Z,19.49
2022-08-17T01:34:10.561Z,19.42
2022-08-17T01:36:40.000Z,19.43
2022-08-17T01:39:11.859Z,19.37
2022-08-17T01:41:41.089Z,19.36
2022-08-17T01:44:08.916Z,19.32
2022-08-17T01:46:38.624Z,19.28
2022-08-17T01:49:09.142Z,19.23
2022-08-17T01:51:36.342Z,19.19
2022-08-17T01:54:07.673Z,19.15
2022-08-17T01:56:38.594Z,19.11
2022-08-17T01:59:06.467Z,19.04
2022-08-17T02:01:34.822Z,19.01
2022-08-17T02:04:02.218Z,18.97
2022-08-17T02:06:45.207Z,18.93
2022-08-17T02:09:23.257Z,18.87
2022-08-17T02:11:54.111Z,18.84
2022-08-17T02:14:21.630Z,18.78
2022-08-17T02:16:48.606Z,18.81
2022-08-17T02:19:16.500Z,18.78
2022-08-17T02:21:45.834Z,18.74
2022-08-17T02:24:59.635Z,18.72
2022-08-17T02:27:19.739Z,18.68
2022-08-17T02:29:46.613Z,18.66
2022-08-17T02:32:27.390Z,18.64
2022-08-17T02:34:59.013Z,18.60
2022-08-17T02:37:27.656Z,18.57
2022-08-17T02:39:57.169Z,18.54
2022-08-17T02:42:45.211Z,18.51
2022-08-17T02:45:16.448Z,18.50
2022-08-17T02:47:44.480Z,18.47
2022-08-17T02:50:13.680Z,18.45
2022-08-17T02:52:44.150Z,18.44
2022-08-17T02:55:20.857Z,18.40
2022-08-17T02:57:48.545Z,18.34
2022-08-17T03:00:22.657Z,18.33
2022-08-17T03:02:50.349Z,18.27
2022-08-17T03:05:21.021Z,18.25
2022-08-17T03:07:48.273Z,18.24
2022-08-17T03:10:16.470Z,18.18
2022-08-17T03:12:44.510Z,18.21
2022-08-17T03:15:17.825Z,18.20
2022-08-17T03:17:44.960Z,18.15
2022-08-17T03:20:13.669Z,18.13
2022-08-17T03:22:47.809Z,18.10
2022-08-17T03:25:25.489Z,18.10
2022-08-17T03:27:53.172Z,18.09
2022-08-17T03:30:22.456Z,18.08
2022-08-17T03:37:45.997Z,18.01
2022-08-17T03:40:13.736Z,17.99
2022-08-17T03:42:41.910Z,18.00
2022-08-17T03:45:15.442Z,18.00
2022-08-17T03:48:01.581Z,17.99
2022-08-17T03:50:47.013Z,18.02
2022-08-17T03:53:35.713Z,18.04
2022-08-17T03:56:23.513Z,18.05
2022-08-17T03:58:50.754Z,18.06
2022-08-17T04:01:18.086Z,18.04
2022-08-17T04:03:45.014Z,18.08
2022-08-17T04:06:11.964Z,18.08
2022-08-17T04:08:38.945Z,18.08
2022-08-17T04:11:06.020Z,18.10
2022-08-17T04:13:32.944Z,18.11
2022-08-17T04:15:59.952Z,18.09
2022-08-17T04:18:27.021Z,18.10
2022-08-17T04:20:54.044Z,18.11
2022-08-17T04:23:21.063Z,18.08
2022-08-17T04:25:51.175Z,18.12
2022-08-17T04:28:19.907Z,18.14
2022-08-17T04:30:48.078Z,18.14
2022-08-17T04:33:24.108Z,18.14
2022-08-17T04:35:56.734Z,18.17
2022-08-17T04:38:26.531Z,18.17
2022-08-17T04:41:12.309Z,18.16
2022-08-17T04:43:40.912Z,18.17
2022-08-17T04:46:11.298Z,18.15
2022-08-17T04:48:41.728Z,18.17
2022-08-17T04:51:15.354Z,18.16
2022-08-17T04:53:45.609Z,18.17
2022-08-17T04:56:21.252Z,18.19
2022-08-17T04:58:51.831Z,18.18
2022-08-17T05:01:23.809Z,18.21
2022-08-17T05:03:57.042Z,18.22
2022-08-17T05:06:24.112Z,18.20
2022-08-17T05:08:51.264Z,18.24
2022-08-17T05:11:18.419Z,18.24
2022-08-17T05:13:45.711Z,18.27
2022-08-17T05:16:12.651Z,18.30
2022-08-17T05:18:39.629Z,18.33
2022-08-17T05:21:07.130Z,18.37
2022-08-17T05:23:42.534Z,18.38
2022-08-17T05:26:26.432Z,18.44
2022-08-17T05:28:57.126Z,18.45
2022-08-17T05:31:27.006Z,18.44
2022-08-17T05:33:54.081Z,18.47
2022-08-17T05:36:42.014Z,18.49
2022-08-17T05:39:08.149Z,18.51
2022-08-17T05:41:41.282Z,18.52
2022-08-17T05:44:08.257Z,18.54
2022-08-17T05:46:40.230Z,18.57
2022-08-17T05:49:08.745Z,18.58
2022-08-17T05:52:00.054Z,18.61
2022-08-17T05:54:56.182Z,18.61
2022-08-17T05:57:29.697Z,18.61
2022-08-17T06:00:22.085Z,18.63
2022-08-17T06:03:03.444Z,18.66
2022-08-17T06:05:33.314Z,18.68
2022-08-17T06:08:12.025Z,18.69
2022-08-17T06:11:02.762Z,18.69
2022-08-17T06:13:52.941Z,18.77
2022-08-17T06:16:33.794Z,18.80
2022-08-17T06:19:16.676Z,18.81
2022-08-17T06:21:47.905Z,18.86
2022-08-17T06:24:25.081Z,18.87
2022-08-17T06:26:52.975Z,18.90
2022-08-17T06:29:37.302Z,18.93
2022-08-17T06:32:10.337Z,18.95
2022-08-17T06:34:41.430Z,18.97
2022-08-17T06:37:26.245Z,19.01
2022-08-17T06:40:19.673Z,19.06
2022-08-17T06:43:06.439Z,19.10
2022-08-17T06:46:00.005Z,19.15
2022-08-17T06:48:36.152Z,19.17
2022-08-17T06:51:35.023Z,19.21
2022-08-17T06:54:10.493Z,19.24
2022-08-17T06:56:55.332Z,19.28
2022-08-17T06:59:36.252Z,19.31
2022-08-17T07:02:52.317Z,19.37
2022-08-17T07:05:24.290Z,19.39
2022-08-17T07:08:03.859Z,19.42
2022-08-17T07:10:43.002Z,19.47
2022-08-17T07:13:25.805Z,19.49
2022-08-17T07:15:58.655Z,19.53
2022-08-17T07:18:28.264Z,19.57
2022-08-17T07:21:06.134Z,19.60
2022-08-17T07:23:46.488Z,19.65
2022-08-17T07:26:13.478Z,19.68
2022-08-17T07:28:43.159Z,19.72
2022-08-17T07:31:13.345Z,19.76
2022-08-17T07:33:41.063Z,19.77
2022-08-17T07:36:29.556Z,19.79
2022-08-17T07:38:58.318Z,19.82
2022-08-17T07:41:25.475Z,19.84
2022-08-17T07:44:15.515Z,19.87
2022-08-17T07:47:27.383Z,19.91
2022-08-17T07:49:54.275Z,19.95
2022-08-17T07:52:50.631Z,19.99
2022-08-17T07:55:40.580Z,20.03
2022-08-17T07:58:07.638Z,20.07
2022-08-17T08:00:34.735Z,20.09
2022-08-17T08:03:13.332Z,20.12
2022-08-17T08:05:57.897Z,20.15
2022-08-17T08:08:47.287Z,20.20
2022-08-17T08:11:28.517Z,20.21
2022-08-17T08:13:55.391Z,20.25
2022-08-17T08:16:25.000Z,20.28
2022-08-17T08:19:02.105Z,20.30
2022-08-17T08:21:35.812Z,20.32
2022-08-17T08:24:36.707Z,20.36
2022-08-17T08:27:22.365Z,20.39
2022-08-17T08:29:57.770Z,20.39
2022-08-17T08:32:46.555Z,20.44
2022-08-17T08:35:37.986Z,20.49
2022-08-17T08:38:16.001Z,20.53
2022-08-17T08:40:54.984Z,20.56
2022-08-17T08:43:42.448Z,20.57
2022-08-17T08:46:19.810Z,20.63
2022-08-17T08:49:26.265Z,20.67
2022-08-17T08:52:21.770Z,20.71
2022-08-17T08:54:56.021Z,20.74
2022-08-17T08:57:38.509Z,20.76
2022-08-17T09:00:17.428Z,20.80
2022-08-17T09:02:58.597Z,20.80
2022-08-17T09:05:28.566Z,20.81
2022-08-17T09:08:11.108Z,20.78
2022-08-17T09:10:42.012Z,20.85
2022-08-17T09:13:33.711Z,20.85
2022-08-17T09:16:11.494Z,20.85
2022-08-17T09:18:59.983Z,20.86
2022-08-17T09:21:38.233Z,20.88
2022-08-17T09:24:27.002Z,20.87
2022-08-17T09:27:06.532Z,20.88
2022-08-17T09:29:36.842Z,20.88
2022-08-17T09:32:28.529Z,20.88
2022-08-17T09:35:02.687Z,20.89
2022-08-17T09:37:40.420Z,20.88
2022-08-17T09:40:55.449Z,20.89
2022-08-17T09:43:32.388Z,20.89
2022-08-17T09:46:11.621Z,20.89
2022-08-17T09:48:55.255Z,20.89
2022-08-17T09:51:34.129Z,20.90
2022-08-17T09:54:21.022Z,20.93
2022-08-17T09:57:29.234Z,20.95
2022-08-17T10:00:13.303Z,20.94
2022-08-17T10:03:16.401Z,20.95
2022-08-17T10:05:49.414Z,20.95
2022-08-17T10:08:52.488Z,20.96
2022-08-17T10:11:50.427Z,20.95
2022-08-17T10:14:44.336Z,20.95
2022-08-17T10:17:11.462Z,20.93
2022-08-17T10:20:03.835Z,20.92
2022-08-17T10:23:01.916Z,20.91
2022-08-17T10:25:54.967Z,20.91
2022-08-17T10:28:29.793Z,20.93
2022-08-17T10:31:31.040Z,20.94
2022-08-17T10:34:18.755Z,20.95
2022-08-17T10:36:52.519Z,20.94
2022-08-17T10:39:22.132Z,20.93
2022-08-17T10:41:55.368Z,20.94
2022-08-17T10:44:40.425Z,20.93
2022-08-17T10:47:09.483Z,20.90
2022-08-17T10:49:38.511Z,20.92
2022-08-17T10:52:20.658Z,20.95
2022-08-17T10:54:58.772Z,20.95
2022-08-17T10:57:58.182Z,20.95
2022-08-17T11:00:27.824Z,20.91
2022-08-17T11:02:58.548Z,20.92
2022-08-17T11:05:44.329Z,20.90
2022-08-17T11:08:50.283Z,20.92
2022-08-17T11:11:47.421Z,20.93
2022-08-17T11:14:26.605Z,20.92
2022-08-17T11:17:49.663Z,20.90
2022-08-17T11:20:30.277Z,20.89
2022-08-17T11:23:35.536Z,20.91
2022-08-17T11:26:17.984Z,20.90
2022-08-17T11:28:52.851Z,20.89
2022-08-17T11:31:38.854Z,20.89
2022-08-17T11:34:17.320Z,20.92
2022-08-17T11:37:09.485Z,20.94
2022-08-17T11:40:13.025Z,20.92
2022-08-17T11:42:59.818Z,20.92
2022-08-17T11:45:40.419Z,20.95
2022-08-17T11:48:40.820Z,20.95
2022-08-17T11:51:46.462Z,21.00
2022-08-17T11:54:46.594Z,21.04
2022-08-17T11:57:25.665Z,21.06
2022-08-17T11:59:55.723Z,21.11
2022-08-17T12:02:31.591Z,21.14
2022-08-17T12:05:14.630Z,21.18
2022-08-17T12:08:05.630Z,21.22
2022-08-17T12:10:35.516Z,21.25
2022-08-17T12:13:10.975Z,21.29
2022-08-17T12:15:43.026Z,21.32
2022-08-17T12:18:19.668Z,21.34
2022-08-17T12:21:19.944Z,21.38
2022-08-17T12:24:04.673Z,21.44
2022-08-17T12:26:34.588Z,21.46
2022-08-17T12:29:17.872Z,21.51
2022-08-17T12:32:02.146Z,21.54
2022-08-17T12:34:38.353Z,21.58
2022-08-17T12:37:13.211Z,21.61
2022-08-17T12:39:49.526Z,21.62
2022-08-17T12:42:27.372Z,21.66
2022-08-17T12:44:54.408Z,21.67
2022-08-17T12:47:23.046Z,21.69
2022-08-17T12:49:55.164Z,21.72
2022-08-17T12:52:32.872Z,21.77
2022-08-17T12:55:06.336Z,21.79
2022-08-17T12:57:41.253Z,21.82
2022-08-17T13:00:29.204Z,21.85
2022-08-17T13:03:21.823Z,21.87
2022-08-17T13:06:03.504Z,21.88
2022-08-17T13:08:33.583Z,21.90
2022-08-17T13:11:03.827Z,21.89
2022-08-17T13:13:37.096Z,21.91
2022-08-17T13:16:09.553Z,21.90
2022-08-17T13:18:39.014Z,21.87
2022-08-17T13:21:16.714Z,21.90
2022-08-17T13:24:04.314Z,21.92
2022-08-17T13:26:44.438Z,21.96
2022-08-17T13:29:51.623Z,21.94
2022-08-17T13:32:45.019Z,21.96
2022-08-17T13:35:32.447Z,22.00
2022-08-17T13:38:11.781Z,22.03
2022-08-17T13:40:43.231Z,22.05
2022-08-17T13:43:10.655Z,22.05
2022-08-17T13:45:39.244Z,22.05
2022-08-17T13:48:13.626Z,22.07
2022-08-17T13:50:45.223Z,22.08
2022-08-17T13:53:37.615Z,22.09
2022-08-17T13:56:38.412Z,22.11
2022-08-17T13:59:52.577Z,22.12
2022-08-17T14:02:13.973Z,22.14
2022-08-17T14:04:43.529Z,22.12
2022-08-17T14:07:13.366Z,22.14
2022-08-17T14:09:47.396Z,22.15
2022-08-17T14:12:17.392Z,22.14
2022-08-17T14:14:45.073Z,22.15
2022-08-17T14:17:12.946Z,22.15
2022-08-17T14:19:40.118Z,22.11
2022-08-17T14:22:11.664Z,22.11
2022-08-17T14:24:45.015Z,22.13
2022-08-17T14:27:12.458Z,22.14
2022-08-17T14:29:41.271Z,22.15
2022-08-17T14:32:17.149Z,22.17
2022-08-17T14:34:45.302Z,22.19
2022-08-17T14:37:13.069Z,22.20
2022-08-17T14:39:40.239Z,22.21
2022-08-17T14:42:07.351Z,22.22
2022-08-17T14:44:34.440Z,22.23
2022-08-17T14:47:01.392Z,22.24
2022-08-17T14:49:30.301Z,22.24
2022-08-17T14:51:59.096Z,22.26
2022-08-17T14:54:33.041Z,22.27
2022-08-17T14:57:24.626Z,22.28
2022-08-17T14:59:54.806Z,22.31
2022-08-17T15:02:30.527Z,22.32
2022-08-17T15:05:05.623Z,22.33
2022-08-17T15:07:32.602Z,22.33
2022-08-17T15:10:01.430Z,22.36
2022-08-17T15:12:33.178Z,22.39
2022-08-17T15:15:04.779Z,22.38
2022-08-17T15:17:44.981Z,22.40
2022-08-17T15:20:16.045Z,22.41
2022-08-17T15:22:44.795Z,22.43
2022-08-17T15:25:12.242Z,22.43
2022-08-17T15:27:40.310Z,22.42
2022-08-17T15:30:08.845Z,22.43
2022-08-17T15:32:39.274Z,22.43
2022-08-17T15:35:08.891Z,22.45
2022-08-17T15:37:36.462Z,22.45
2022-08-17T15:40:05.366Z,22.46
2022-08-17T15:42:32.988Z,22.48
2022-08-17T15:45:06.652Z,22.47
2022-08-17T15:47:33.605Z,22.48
2022-08-17T15:50:00.685Z,22.47
2022-08-17T15:52:31.891Z,22.48
2022-08-17T15:55:00.799Z,22.50
2022-08-17T15:57:28.170Z,22.48
2022-08-17T15:59:58.576Z,22.54
2022-08-17T16:03:46.740Z,22.55
2022-08-17T16:05:25.192Z,22.56
2022-08-17T16:07:53.614Z,22.57
2022-08-17T16:10:21.535Z,22.58
2022-08-17T16:13:04.151Z,22.61
2022-08-17T16:15:31.739Z,22.61
2022-08-17T16:17:59.404Z,22.64
2022-08-17T16:20:26.930Z,22.65
2022-08-17T16:22:54.517Z,22.65
2022-08-17T16:25:38.264Z,22.68
2022-08-17T16:28:14.196Z,22.68
2022-08-17T16:30:41.326Z,22.70
2022-08-17T16:33:11.395Z,22.70
2022-08-17T16:35:41.917Z,22.71
2022-08-17T16:38:09.622Z,22.64
2022-08-17T16:40:36.697Z,22.68
2022-08-17T16:43:06.991Z,22.69
2022-08-17T16:45:36.718Z,22.67
2022-08-17T16:48:04.506Z,22.69
2022-08-17T16:50:32.358Z,22.70
2022-08-17T16:53:06.622Z,22.68
2022-08-17T16:55:35.770Z,22.67
2022-08-17T16:58:05.078Z,22.67
2022-08-17T17:00:33.592Z,22.67
2022-08-17T17:03:19.424Z,22.65
2022-08-17T17:06:08.495Z,22.64
2022-08-17T17:08:44.507Z,22.60
2022-08-17T17:11:24.424Z,22.61
2022-08-17T17:13:57.895Z,22.58
2022-08-17T17:16:57.221Z,22.57
2022-08-17T17:19:45.913Z,22.56
2022-08-17T17:22:18.914Z,22.57
2022-08-17T17:25:07.584Z,22.56
2022-08-17T17:27:56.197Z,22.57
2022-08-17T17:30:25.025Z,22.55
2022-08-17T17:33:02.851Z,22.57
2022-08-17T17:35:46.744Z,22.57
2022-08-17T17:38:23.211Z,22.55
2022-08-17T17:41:02.537Z,22.56
2022-08-17T17:43:40.079Z,22.54
2022-08-17T17:46:27.463Z,22.55
2022-08-17T17:48:57.568Z,22.54
2022-08-17T17:52:10.074Z,22.53
2022-08-17T17:54:58.101Z,22.50
2022-08-17T17:57:40.506Z,22.45
2022-08-17T18:00:15.591Z,22.45
2022-08-17T18:03:07.710Z,22.43
2022-08-17T18:05:44.448Z,22.42
2022-08-17T18:08:35.168Z,22.42
2022-08-17T18:11:42.051Z,22.39
2022-08-17T18:14:15.225Z,22.36
2022-08-17T18:16:44.077Z,22.35
2022-08-17T18:19:16.502Z,22.31
2022-08-17T18:21:47.501Z,22.27
2022-08-17T18:24:14.585Z,22.24
2022-08-17T18:26:52.284Z,22.23
2022-08-17T18:29:28.214Z,22.18
2022-08-17T18:32:23.075Z,22.14
2022-08-17T18:34:54.089Z,22.11
2022-08-17T18:37:49.254Z,22.04
2022-08-17T18:40:16.325Z,22.00
2022-08-17T18:42:46.394Z,21.96
2022-08-17T18:45:30.621Z,21.92
2022-08-17T18:47:57.916Z,21.89
2022-08-17T18:50:35.575Z,21.84
2022-08-17T18:53:34.425Z,21.78
2022-08-17T18:56:23.078Z,21.72
2022-08-17T18:58:54.872Z,21.66
2022-08-17T19:01:22.213Z,21.62
2022-08-17T19:04:15.696Z,21.58
2022-08-17T19:06:42.990Z,21.55
2022-08-17T19:09:33.865Z,21.53
2022-08-17T19:12:06.557Z,21.46
2022-08-17T19:14:33.855Z,21.41
2022-08-17T19:17:20.560Z,21.35
2022-08-17T19:20:19.801Z,21.30
2022-08-17T19:23:04.324Z,21.24
2022-08-17T19:25:36.285Z,21.21
2022-08-17T19:28:22.381Z,21.14
2022-08-17T19:30:55.423Z,21.10
2022-08-17T19:33:22.605Z,21.05
2022-08-17T19:35:59.185Z,20.98
2022-08-17T19:38:36.599Z,20.91
2022-08-17T19:41:21.832Z,20.86
2022-08-17T19:44:09.330Z,20.80
2022-08-17T19:47:01.956Z,20.74
2022-08-17T19:49:57.875Z,20.68
2022-08-17T19:52:50.888Z,20.62
2022-08-17T19:55:48.640Z,20.55
2022-08-17T19:58:24.145Z,20.51
2022-08-17T20:00:53.157Z,20.45
2022-08-17T20:03:29.659Z,20.43
2022-08-17T20:06:12.550Z,20.38
2022-08-17T20:08:55.520Z,20.32
2022-08-17T20:11:31.780Z,20.29
2022-08-17T20:14:06.904Z,20.23
2022-08-17T20:16:34.273Z,20.13
2022-08-17T20:19:19.361Z,20.14
2022-08-17T20:21:59.532Z,20.07
2022-08-17T20:24:37.923Z,20.03
2022-08-17T20:27:11.084Z,19.96
2022-08-17T20:30:13.052Z,19.91
2022-08-17T20:32:56.121Z,19.84
2022-08-17T20:35:32.912Z,19.79
2022-08-17T20:38:07.243Z,19.75
2022-08-17T20:40:34.157Z,19.71
2022-08-17T20:43:30.034Z,19.66
2022-08-17T20:46:21.067Z,19.61
2022-08-17T20:48:52.581Z,19.56
2022-08-17T20:52:00.745Z,19.50
2022-08-17T20:54:43.130Z,19.49
2022-08-17T20:57:33.078Z,19.44
2022-08-17T21:00:17.671Z,19.40
2022-08-17T21:02:50.644Z,19.34
2022-08-17T21:05:34.577Z,19.29
2022-08-17T21:08:16.709Z,19.24
2022-08-17T21:10:46.537Z,19.19
2022-08-17T21:13:13.979Z,19.15
2022-08-17T21:15:49.945Z,19.12
2022-08-17T21:18:47.623Z,19.07
2022-08-17T21:21:32.755Z,19.05
2022-08-17T21:24:15.881Z,18.99
2022-08-17T21:27:06.141Z,18.97
2022-08-17T21:29:33.950Z,18.92
2022-08-17T21:32:08.023Z,18.87
2022-08-17T21:34:44.494Z,18.82
2022-08-17T21:37:20.554Z,18.78
2022-08-17T21:39:53.466Z,18.75
2022-08-17T21:42:29.727Z,18.70
2022-08-17T21:45:01.211Z,18.66
2022-08-17T21:47:30.711Z,18.64
2022-08-17T21:50:18.733Z,18.59
2022-08-17T21:52:47.207Z,18.54
2022-08-17T21:55:31.002Z,18.50
2022-08-17T21:58:15.150Z,18.49
2022-08-17T22:00:45.630Z,18.46
2022-08-17T22:03:25.893Z,18.40
2022-08-17T22:05:52.770Z,18.37
2022-08-17T22:08:24.046Z,18.35
2022-08-17T22:11:00.309Z,18.33
2022-08-17T22:13:29.737Z,18.28
2022-08-17T22:16:29.048Z,18.23
2022-08-17T22:18:53.670Z,18.20
2022-08-17T22:21:22.557Z,18.14
2022-08-17T22:24:15.337Z,18.13
2022-08-17T22:27:01.157Z,18.11
2022-08-17T22:29:47.438Z,18.07
2022-08-17T22:32:52.682Z,17.99
2022-08-17T22:35:37.913Z,18.01
2022-08-17T22:38:19.962Z,17.97
2022-08-17T22:40:56.205Z,17.94
2022-08-17T22:43:28.655Z,17.92
2022-08-17T22:45:59.043Z,17.89
2022-08-17T22:48:29.288Z,17.83
2022-08-17T22:51:12.617Z,17.85
2022-08-17T22:54:11.388Z,17.82
2022-08-17T22:57:05.652Z,17.80
2022-08-17T22:59:50.362Z,17.78
2022-08-17T23:02:28.615Z,17.72
2022-08-17T23:05:18.828Z,17.68
2022-08-17T23:07:46.766Z,17.64
2022-08-17T23:10:14.742Z,17.62
2022-08-17T23:12:41.863Z,17.58
2022-08-17T23:15:14.282Z,17.57
2022-08-17T23:17:42.131Z,17.57
2022-08-17T23:20:12.652Z,17.56
2022-08-17T23:22:51.403Z,17.49
2022-08-17T23:25:25.737Z,17.46
2022-08-17T23:27:52.956Z,17.43
2022-08-17T23:30:20.382Z,17.42
2022-08-17T23:32:53.629Z,17.40
2022-08-17T23:35:39.053Z,17.35
2022-08-17T23:38:12.000Z,17.33
2022-08-17T23:40:39.987Z,17.29
2022-08-17T23:43:23.756Z,17.23
2022-08-17T23:45:54.282Z,17.23
2022-08-17T23:48:34.949Z,17.21
2022-08-17T23:51:12.405Z,17.19
2022-08-17T23:53:45.204Z,17.14
2022-08-17T23:56:12.226Z,17.12
2022-08-17T23:58:42.358Z,17.12
